Aeroporto :
LOGIN :

Iscrizione | Disclaimer

   EN    FR    IT 

 










Sommario :    VFR   VFR Marginale   IFR   IFR Intensivo   IFR Molto Intensivo
Visibilità : 
Base nubi : 
>= 8 km
>= 3000ft
5 / 8 km
1000 / 3000 ft
1500m / 5 km
500 / 1000 ft
800 / 1500m
200 / 500 ft
< 800m
< 200 ft
Simboli :   Temporali  Nebbia  Neve Forte  Precipitazioni Forti  Vento > 20 kt
SIGMETs :   Varie  Temporali  Ghiacco  Turbolenza  Onda orograficha  Ceneri Vulcaniche






- Altitudine del aeroporto : 348 ft
- Codice IATA : LDV


LFRJ - Landivisiau

ULTIMO METAR :
  • 170500Z AUTO 12004KT CAVOK 12/11 Q1009

METARs OBSOLETI :
  • 170430Z AUTO 10004KT CAVOK 11/11 Q1009
  • 170400Z AUTO 12005KT CAVOK 11/11 Q1009
  • 170330Z AUTO 09004KT 6000 R25/0900U R07/1300U NSC 10/09 Q1009
  • 170300Z AUTO 13002KT CAVOK 11/10 Q1009
  • 170230Z AUTO 11002KT 0900 0800 R25/1400D R07/1200U FG SCT013 BKN052 11/10 Q1009
  • 170200Z AUTO 06001KT 1400 1000 R25/1100U R07/1300D BR BKN013 11/11 Q1009
  • 170130Z AUTO 08002KT 7000 3300 R25/1300U FEW012 SCT019 12/11 Q1009
  • 170100Z AUTO 01002KT 9999 BKN018 BKN027 BKN035 13/11 Q1009
  • 170030Z AUTO 19001KT 9999 BKN022 BKN027 BKN035 13/11 Q1009

Previsioni scadute.



MetMap, La meteo Aeronautica in un colpo d'occhio ! - Copyright ORBIFLY Dicembre 2007 - Disclaimer

ORBIFLY MET'MAP TEAM :

Programmazione e sviluppo : Alexandra Zaïnal
Concezione : Baudouin d'Aumeries
Supporto tecnico e logistico : Manuel Goepfert
Aiuto : Marc-Olivier Méhu
Aiuto per la traduzione : Arnaldo La Scala




FONTI E CREDITI :

   NOAA